Data for 10/05/2015

Time Sea-Level Adjusted Pressure Absolute Pressure Temperature Relative Humidity Dew Point   
(mb) (inHg) (mb) (inHg) (C) (F) (%) (C) (F)
00:05 1019 30.09 848 25.04 3.6 38.4 80 0.5 32.8
00:10 1019 30.09 848 25.04 3.6 38.4 80 0.5 32.8
00:15 1019 30.09 848 25.04 3.6 38.4 80 0.5 32.8
00:20 1019 30.09 848 25.04 3.5 38.4 80 0.5 32.9
00:25 1019 30.09 848 25.04 3.6 38.4 80 0.5 32.9
00:30 1019 30.09 848 25.04 3.6 38.5 80 0.5 32.9
00:35 1019 30.09 848 25.04 3.6 38.5 80 0.4 32.8
00:40 1019 30.09 848 25.04 3.7 38.6 80 0.5 32.9
00:45 1019 30.09 848 25.04 3.7 38.6 80 0.5 32.9
00:50 1019 30.09 848 25.04 3.7 38.6 80 0.5 32.9
00:55 1019 30.09 848 25.04 3.6 38.6 80 0.4 32.8
01:00 1019 30.09 848 25.04 3.6 38.5 80 0.5 32.8
01:05 1019 30.09 848 25.04 3.6 38.5 80 0.5 32.9
01:10 1019 30.09 848 25.04 3.6 38.5 80 0.5 32.9
01:15 1019 30.09 848 25.04 3.5 38.3 81 0.5 32.9
01:20 1019 30.09 848 25.04 3.4 38 82 0.5 32.9
01:25 1019 30.09 848 25.04 3.3 37.9 82 0.5 32.9
01:30 1019 30.09 848 25.04 3.2 37.8 82 0.5 32.9
01:35 1019 30.09 848 25.04 3.2 37.8 83 0.6 33
01:40 1019 30.09 848 25.04 3.1 37.7 84 0.7 33.2
01:45 1019 30.09 848 25.04 3.1 37.5 85 0.8 33.4
01:50 1019 30.09 848 25.04 3 37.3 85 0.7 33.2
01:55 1019 30.09 848 25.04 2.9 37.2 85 0.7 33.3
02:00 1019 30.09 848 25.04 2.8 37 86 0.7 33.2
02:05 1019 30.09 848 25.04 2.6 36.7 87 0.6 33.1
02:10 1019 30.09 848 25.04 2.5 36.4 87 0.6 33.1
02:15 1019 30.09 849 25.07 2.4 36.4 88 0.7 33.2
02:20 1019 30.09 849 25.07 2.6 36.7 88 0.8 33.4
02:25 1019 30.09 849 25.07 2.6 36.6 87 0.7 33.2
02:30 1019 30.09 849 25.07 2.5 36.4 87 0.5 33
02:35 1019 30.09 849 25.07 2.3 36.1 88 0.4 32.7
02:40 1019 30.09 849 25.07 2.4 36.3 85 0.2 32.4
02:45 1019 30.09 849 25.07 2.6 36.7 85 0.4 32.7
02:50 1019 30.09 849 25.07 2.5 36.6 85 0.3 32.5
02:55 1019 30.09 849 25.07 2.5 36.5 85 0.2 32.4
03:00 1019 30.09 849 25.07 2.3 36.2 86 0.2 32.4
03:05 1019 30.09 849 25.07 2.1 35.7 87 0.1 32.2
03:10 1019 30.09 849 25.07 1.8 35.3 87 -0 31.9
03:15 1019 30.09 849 25.07 1.8 35.3 87 -0.1 31.9
03:20 1019 30.09 849 25.07 1.7 35.1 88 -0.1 31.9
03:25 1020 30.12 849 25.07 1.7 35 88 -0.1 31.9
03:30 1019 30.09 849 25.07 1.8 35.3 88 0 32
03:35 1019 30.09 849 25.07 1.8 35.3 87 -0 31.9
03:40 1019 30.09 849 25.07 1.7 35 89 -0 32
03:45 1019 30.09 849 25.07 1.9 35.4 88 0.1 32.2
03:50 1019 30.09 849 25.07 1.9 35.5 88 0.1 32.1
03:55 1019 30.09 849 25.07 1.9 35.3 88 0.1 32.2
04:00 1019 30.09 849 25.07 1.9 35.4 87 -0 31.9
04:05 1019 30.09 849 25.07 1.7 35.1 87 -0.2 31.7
04:10 1019 30.09 849 25.07 1.6 34.8 87 -0.3 31.5
04:15 1019 30.09 849 25.07 1.5 34.7 88 -0.3 31.5
04:20 1019 30.09 849 25.07 1.5 34.7 87 -0.3 31.4
04:25 1019 30.09 849 25.07 1.4 34.6 88 -0.4 31.3
04:30 1019 30.09 849 25.07 1.4 34.5 88 -0.4 31.4
04:35 1019 30.09 849 25.07 1.5 34.6 87 -0.4 31.2
04:40 1019 30.09 849 25.07 1.4 34.5 88 -0.4 31.3
04:45 1019 30.09 849 25.07 1.4 34.5 88 -0.4 31.3
04:50 1019 30.09 849 25.07 1.4 34.6 87 -0.5 31.1
04:55 1020 30.12 849 25.07 1.4 34.5 87 -0.5 31
05:00 1020 30.12 849 25.07 1.3 34.3 88 -0.5 31.1
05:05 1019 30.09 849 25.07 1.3 34.4 89 -0.3 31.4
05:10 1020 30.12 849 25.07 1.6 35 88 -0.1 31.7
05:15 1020 30.12 849 25.07 1.7 35.1 87 -0.2 31.7
05:20 1020 30.12 849 25.07 1.7 35 87 -0.2 31.6
05:25 1020 30.12 849 25.07 1.6 34.9 87 -0.3 31.4
05:30 1020 30.12 849 25.07 1.5 34.7 88 -0.3 31.5
05:35 1020 30.12 849 25.07 1.4 34.5 89 -0.3 31.5
05:40 1020 30.12 849 25.07 1.8 35.2 87 -0.2 31.6
05:45 1020 30.12 849 25.07 2.1 35.8 86 -0 32
05:50 1020 30.12 849 25.07 2.1 35.7 86 -0 31.9
05:55 1020 30.12 849 25.07 2.1 35.8 86 -0 32
06:00 1020 30.12 849 25.07 2 35.7 86 -0.1 31.9
06:05 1020 30.12 849 25.07 1.8 35.2 86 -0.3 31.5
06:10 1020 30.12 849 25.07 1.6 34.9 86 -0.4 31.2
06:15 1020 30.12 849 25.07 1.7 35 88 -0.1 31.8
06:20 1020 30.12 849 25.07 1.6 35 87 -0.3 31.4
06:25 1020 30.12 849 25.07 1.7 35 86 -0.4 31.2
06:30 1020 30.12 849 25.07 1.6 34.9 86 -0.5 31.1
06:35 1020 30.12 849 25.07 1.6 34.9 86 -0.4 31.2
06:40 1020 30.12 849 25.07 1.6 34.9 86 -0.4 31.3
06:45 1020 30.12 849 25.07 1.6 34.9 86 -0.4 31.2
06:50 1020 30.12 849 25.07 1.6 34.9 86 -0.5 31.1
06:55 1020 30.12 849 25.07 1.5 34.7 86 -0.6 30.8
07:00 1020 30.12 849 25.07 1.5 34.6 86 -0.7 30.8
07:05 1020 30.12 849 25.07 1.7 35 85 -0.7 30.8
07:10 1020 30.12 849 25.07 2 35.6 83 -0.6 30.9
07:15 1020 30.12 849 25.07 2.5 36.6 80 -0.5 31.1
07:20 1020 30.12 849 25.07 2.6 36.7 80 -0.5 31.1
07:25 1020 30.12 849 25.07 2.9 37.3 78 -0.5 31.2
07:30 1020 30.12 849 25.07 2.9 37.3 79 -0.3 31.4
07:35 1020 30.12 849 25.07 3.4 38.1 77 -0.3 31.4
07:40 1020 30.12 849 25.07 3.6 38.6 76 -0.3 31.5
07:45 1020 30.12 849 25.07 3.7 38.7 76 -0.2 31.7
07:50 1020 30.12 850 25.1 4.3 39.7 73 -0.1 31.9
07:55 1020 30.12 850 25.1 4.8 40.6 72 0.1 32.2
08:00 1020 30.12 850 25.1 5.3 41.6 70 0.2 32.4
08:05 1020 30.12 850 25.1 5.6 42.2 70 0.6 33
08:10 1020 30.12 850 25.1 5.9 42.7 68 0.4 32.8
08:15 1020 30.12 850 25.1 6.6 43.9 65 0.6 33
08:20 1020 30.12 850 25.1 7.1 44.8 64 0.9 33.6
08:25 1021 30.15 850 25.1 6.8 44.2 67 1.2 34.1
08:30 1021 30.15 850 25.1 6.6 43.9 67 1 33.8
08:35 1021 30.15 850 25.1 6.8 44.2 65 0.6 33.1
08:40 1021 30.15 850 25.1 6.5 43.7 69 1.2 34.1
08:45 1021 30.15 850 25.1 6.8 44.2 65 0.5 33
08:50 1021 30.15 850 25.1 7.2 45 63 0.7 33.3
08:55 1021 30.15 850 25.1 7 44.5 65 0.9 33.6
09:00 1021 30.15 850 25.1 6.6 43.8 65 0.4 32.8
09:05 1021 30.15 850 25.1 7.3 45.2 62 0.6 33.1
09:10 1021 30.15 850 25.1 7.9 46.1 62 1.1 33.9
09:15 1021 30.15 850 25.1 7.8 46.1 62 1 33.8
09:20 1021 30.15 850 25.1 7.8 46 63 1.2 34.2
09:25 1021 30.15 850 25.1 7.8 46.1 62 0.9 33.7
09:30 1021 30.15 850 25.1 8.4 47.1 58 0.6 33.1
09:35 1021 30.15 850 25.1 8.5 47.3 59 1 33.8
09:40 1021 30.15 850 25.1 8.9 48 57 0.8 33.5
09:45 1021 30.15 850 25.1 9.4 48.9 56 1 33.8
09:50 1021 30.15 850 25.1 9.1 48.4 59 1.5 34.7
09:55 1021 30.15 850 25.1 9.3 48.7 56 1.1 34
10:00 1021 30.15 850 25.1 9.8 49.6 54 1 33.9
10:05 1021 30.15 850 25.1 9.9 49.9 54 1.2 34.2
10:10 1021 30.15 850 25.1 10 49.9 54 1.2 34.2
10:15 1021 30.15 850 25.1 10.1 50.1 54 1.3 34.4
10:20 1021 30.15 850 25.1 10.2 50.3 54 1.3 34.3
10:25 1021 30.15 850 25.1 10.8 51.4 52 1.3 34.3
10:30 1020 30.12 850 25.1 10.6 51 52 1.1 34
10:35 1020 30.12 850 25.1 11.1 52 50 1 33.8
10:40 1020 30.12 850 25.1 11.2 52.2 52 1.7 35.1
10:45 1020 30.12 850 25.1 10.7 51.2 52 1.4 34.5
10:50 1020 30.12 850 25.1 11 51.8 49 0.8 33.4
10:55 1020 30.12 850 25.1 11.2 52.1 50 1.1 34
11:00 1020 30.12 850 25.1 11.8 53.3 47 1 33.7
11:05 1020 30.12 850 25.1 12.2 54 46 1 33.7
11:10 1020 30.12 850 25.1 12.3 54.1 46 0.9 33.7
11:15 1020 30.12 850 25.1 11.9 53.4 48 1.2 34.1
11:20 1020 30.12 850 25.1 10.8 51.4 52 1.5 34.6
11:25 1020 30.12 849 25.07 10.9 51.5 49 0.7 33.3
11:30 1020 30.12 849 25.07 12.2 54 46 1.1 33.9
11:35 1020 30.12 849 25.07 13.3 55.9 45 1.7 35.1
11:40 1020 30.12 849 25.07 12.5 54.5 46 1.3 34.3
11:45 1020 30.12 849 25.07 13 55.4 47 2 35.5
11:50 1020 30.12 849 25.07 13.5 56.3 44 1.7 35
11:55 1020 30.12 849 25.07 13.3 55.9 46 2.1 35.8
12:00 1020 30.12 849 25.07 12.7 54.9 48 2.1 35.9
12:05 1020 30.12 849 25.07 12.2 54 49 1.8 35.3
12:10 1020 30.12 849 25.07 12.9 55.3 46 1.7 35.1
12:15 1020 30.12 849 25.07 13.3 55.9 46 1.9 35.5
12:20 1020 30.12 849 25.07 14.1 57.4 43 1.9 35.3
12:25 1020 30.12 849 25.07 14.2 57.5 46 2.9 37.3
12:30 1020 30.12 849 25.07 13.7 56.6 44 1.8 35.2
12:35 1020 30.12 849 25.07 13.9 57.1 44 2 35.6
12:40 1020 30.12 849 25.07 14.8 58.6 42 1.9 35.5
12:45 1020 30.12 849 25.07 15.1 59.2 40 1.7 35.1
12:50 1020 30.12 849 25.07 15.3 59.5 40 1.9 35.5
12:55 1020 30.12 849 25.07 15.6 60 40 2.2 35.9
13:00 1020 30.12 849 25.07 15.6 60.1 39 1.9 35.5
13:05 1020 30.12 849 25.07 15.5 59.8 43 3.1 37.6
13:10 1020 30.12 849 25.07 15.1 59.1 40 1.8 35.2
13:15 1020 30.12 849 25.07 15.9 60.5 38 1.6 34.9
13:20 1020 30.12 849 25.07 16.3 61.4 37 1.7 35
13:25 1020 30.12 849 25.07 16.5 61.7 38 2.3 36.1
13:30 1020 30.12 849 25.07 16.4 61.5 38 2.1 35.7
13:35 1020 30.12 849 25.07 16.5 61.7 37 1.9 35.5
13:40 1020 30.12 849 25.07 16.7 62.1 37 2.2 35.9
13:45 1020 30.12 849 25.07 15.8 60.5 39 1.9 35.4
13:50 1020 30.12 849 25.07 16.7 62 37 1.9 35.4
13:55 1020 30.12 849 25.07 16.3 61.4 37 1.7 35.1
14:00 1020 30.12 849 25.07 17.1 62.8 35 1.6 34.9
14:05 1020 30.12 849 25.07 16.9 62.4 36 1.9 35.5
14:10 1020 30.12 849 25.07 17.3 63.1 34 1.3 34.3
14:15 1020 30.12 849 25.07 17.7 63.8 35 2.1 35.8
14:20 1020 30.12 849 25.07 17.7 63.9 34 1.8 35.3
14:25 1020 30.12 849 25.07 17.7 63.8 34 1.9 35.5
14:30 1020 30.12 849 25.07 18 64.4 34 1.9 35.4
14:35 1020 30.12 849 25.07 18 64.3 34 2.1 35.8
14:40 1020 30.12 849 25.07 18.2 64.7 33 1.6 34.9
14:45 1020 30.12 849 25.07 17.8 64.1 33 1.7 35
14:50 1020 30.12 849 25.07 17.8 64.1 32 1.1 33.9
14:55 1020 30.12 849 25.07 18.1 64.5 34 2 35.5
15:00 1020 30.12 849 25.07 18.4 65 32 1.6 35
15:05 1020 30.12 849 25.07 18.6 65.4 32 1.9 35.5
15:10 1020 30.12 849 25.07 18.5 65.3 32 1.5 34.7
15:15 1020 30.12 849 25.07 18.6 65.5 33 2.1 35.7
15:20 1020 30.12 849 25.07 18.6 65.5 31 1.3 34.3
15:25 1020 30.12 849 25.07 18.6 65.5 32 1.9 35.4
15:30 1020 30.12 849 25.07 18.1 64.5 33 1.6 34.9
15:35 1020 30.12 849 25.07 18.2 64.8 31 0.8 33.4
15:40 1020 30.12 849 25.07 18.4 65.1 30 0.5 32.9
15:45 1020 30.12 849 25.07 18.4 65.1 30 0.9 33.5
15:50 1020 30.12 849 25.07 18.4 65.2 31 1.2 34.2
15:55 1020 30.12 849 25.07 18.5 65.3 30 0.9 33.6
16:00 1020 30.12 849 25.07 18.4 65.1 31 1.1 34.1
16:05 1020 30.12 849 25.07 18.3 65 31 1 33.8
16:10 1020 30.12 849 25.07 18.3 65 31 0.9 33.7
16:15 1020 30.12 849 25.07 18.3 64.9 31 0.8 33.5
16:20 1020 30.12 849 25.07 18.4 65 31 0.9 33.6
16:25 1020 30.12 849 25.07 18.2 64.8 31 0.8 33.5
16:30 1020 30.12 849 25.07 18 64.4 31 0.8 33.5
16:35 1020 30.12 849 25.07 17.9 64.1 33 1.5 34.7
16:40 1020 30.12 849 25.07 17.4 63.2 34 1.6 35
16:45 1020 30.12 849 25.07 17 62.5 35 1.5 34.6
16:50 1020 30.12 849 25.07 16.7 62.1 36 1.6 34.8
16:55 1020 30.12 849 25.07 17.1 62.8 34 1.2 34.1
17:00 1020 30.12 849 25.07 17 62.5 36 1.8 35.2
17:05 1020 30.12 849 25.07 16.7 62.1 37 1.9 35.4
17:10 1020 30.12 849 25.07 16.1 61 37 1.7 35.1
17:15 1020 30.12 849 25.07 16 60.9 37 1.4 34.6
17:20 1020 30.12 849 25.07 16.2 61.2 39 2.2 36
17:25 1020 30.12 850 25.1 15.9 60.6 39 2.2 35.9
17:30 1020 30.12 850 25.1 15.8 60.5 39 1.9 35.4
17:35 1020 30.12 850 25.1 15.9 60.6 38 1.8 35.3
17:40 1021 30.15 850 25.1 16.1 60.9 38 1.9 35.4
17:45 1021 30.15 850 25.1 15.8 60.5 40 2.2 36
17:50 1021 30.15 850 25.1 15.4 59.6 43 3.1 37.6
17:55 1021 30.15 850 25.1 14.8 58.6 48 3.9 39
18:00 1021 30.15 850 25.1 13.9 57 49 3.4 38.2
18:05 1021 30.15 850 25.1 13.3 55.9 52 3.7 38.7
18:10 1021 30.15 850 25.1 13 55.3 52 3.5 38.2
18:15 1021 30.15 850 25.1 12.6 54.6 53 3.2 37.7
18:20 1021 30.15 850 25.1 12.3 54.1 54 3.3 37.9
18:25 1021 30.15 850 25.1 11.8 53.3 56 3.4 38.1
18:30 1021 30.15 850 25.1 11.5 52.7 57 3.3 38
18:35 1021 30.15 850 25.1 11.2 52.2 58 3.4 38.1
18:40 1021 30.15 850 25.1 10.7 51.3 59 3 37.4
18:45 1021 30.15 850 25.1 10.5 50.9 58 2.7 36.8
18:50 1021 30.15 850 25.1 10.1 50.2 59 2.5 36.5
18:55 1021 30.15 850 25.1 10 50 59 2.4 36.2
19:00 1021 30.15 850 25.1 10.2 50.3 57 2.1 35.8
19:05 1021 30.15 850 25.1 10.1 50.1 55 1.4 34.4
19:10 1021 30.15 850 25.1 10 50.1 56 1.7 35.1
19:15 1021 30.15 850 25.1 9.9 49.7 57 1.7 35
19:20 1021 30.15 850 25.1 10.1 50.1 56 1.7 35.1
19:25 1021 30.15 850 25.1 9.8 49.7 56 1.4 34.6
19:30 1021 30.15 850 25.1 9.6 49.3 56 1.4 34.5
19:35 1021 30.15 851 25.13 9.5 49 58 1.6 34.8
19:40 1021 30.15 851 25.13 9.2 48.5 59 1.7 35
19:45 1021 30.15 851 25.13 8.9 48 61 1.7 35.1
19:50 1021 30.15 851 25.13 8.8 47.9 61 1.8 35.3
19:55 1021 30.15 851 25.13 8.7 47.7 63 2 35.6
20:00 1021 30.15 851 25.13 8.7 47.6 63 2 35.6
20:05 1021 30.15 851 25.13 8.8 47.9 62 2.1 35.7
20:10 1021 30.15 851 25.13 8.8 47.9 62 2 35.6
20:15 1022 30.18 851 25.13 9.1 48.3 61 1.9 35.5
20:20 1022 30.18 851 25.13 9.4 48.9 60 2 35.7
20:25 1022 30.18 851 25.13 9.2 48.5 61 2.1 35.7
20:30 1022 30.18 851 25.13 9.2 48.5 61 2 35.6
20:35 1022 30.18 851 25.13 9.2 48.6 61 2 35.7
20:40 1022 30.18 851 25.13 9.1 48.3 61 2.1 35.7
20:45 1022 30.18 851 25.13 8.9 47.9 61 1.8 35.3
20:50 1022 30.18 851 25.13 8.7 47.7 62 1.8 35.3
20:55 1022 30.18 851 25.13 8.7 47.7 62 1.8 35.3
21:00 1022 30.18 851 25.13 8.5 47.3 62 1.7 35
21:05 1022 30.18 851 25.13 8.6 47.5 63 1.9 35.5
21:10 1022 30.18 851 25.13 8.5 47.4 62 1.8 35.2
21:15 1022 30.18 851 25.13 8.8 47.8 64 2.4 36.4
21:20 1022 30.18 851 25.13 8.9 47.9 65 2.7 36.8
21:25 1022 30.18 851 25.13 8.8 47.8 66 2.7 36.9
21:30 1022 30.18 851 25.13 8.5 47.2 66 2.5 36.6
21:35 1022 30.18 851 25.13 8.5 47.3 65 2.3 36.1
21:40 1022 30.18 851 25.13 8.5 47.2 64 2.1 35.7
21:45 1022 30.18 851 25.13 8.4 47.2 65 2.3 36.1
21:50 1022 30.18 851 25.13 8.4 47.1 64 2 35.7
21:55 1022 30.18 851 25.13 8.5 47.3 65 2.3 36.1
22:00 1022 30.18 851 25.13 8.2 46.8 67 2.4 36.3
22:05 1022 30.18 851 25.13 8.1 46.5 67 2.3 36.1
22:10 1022 30.18 851 25.13 8.2 46.7 65 2.1 35.7
22:15 1022 30.18 851 25.13 8.5 47.3 64 2.1 35.8
22:20 1022 30.18 851 25.13 8.7 47.7 62 2 35.5
22:25 1022 30.18 851 25.13 8.7 47.7 65 2.5 36.4
22:30 1022 30.18 851 25.13 8.4 47.2 63 1.8 35.2
22:35 1022 30.18 851 25.13 8.7 47.7 63 2.1 35.8
22:40 1022 30.18 851 25.13 8.4 47.2 65 2.3 36.2
22:45 1022 30.18 851 25.13 8.3 47 66 2.3 36.1
22:50 1022 30.18 851 25.13 8 46.3 66 2.1 35.8
22:55 1022 30.18 851 25.13 7.9 46.1 67 2.2 36
23:00 1022 30.18 851 25.13 7.7 45.8 66 1.8 35.2
23:05 1022 30.18 851 25.13 7.9 46.3 66 2 35.5
23:10 1022 30.18 851 25.13 7.8 46 66 1.8 35.2
23:15 1022 30.18 851 25.13 7.8 46.1 66 1.8 35.2
23:20 1022 30.18 851 25.13 7.9 46.2 63 1.2 34.2
23:25 1022 30.18 851 25.13 8.1 46.6 62 1.3 34.4
23:30 1022 30.18 851 25.13 8.6 47.5 60 1.2 34.2
23:35 1022 30.18 851 25.13 8.9 47.9 60 1.4 34.6
23:40 1022 30.18 851 25.13 8.2 46.8 64 1.8 35.3
23:45 1022 30.18 851 25.13 7.8 46.1 66 2 35.5
23:50 1022 30.18 851 25.13 7.7 45.8 65 1.6 34.9
23:55 1022 30.18 851 25.13 7.5 45.4 67 1.9 35.3
24:00 1022 30.18 851 25.13 7.1 44.7 69 1.8 35.2